createdAt,value
2023-02-02T00:01:23.960Z,101394.44
2023-02-02T00:03:51.064Z,101405.03
2023-02-02T00:06:22.152Z,101404.66
2023-02-02T00:08:48.947Z,101400.88
2023-02-02T00:11:16.588Z,101399.72
2023-02-02T00:13:43.170Z,101400.41
2023-02-02T00:16:28.504Z,101406.25
2023-02-02T00:19:00.622Z,101389.31
2023-02-02T00:21:27.595Z,101405.78
2023-02-02T00:23:54.034Z,101407.97
2023-02-02T00:26:21.517Z,101416.44
2023-02-02T00:28:48.459Z,101415.09
2023-02-02T00:31:14.906Z,101415.09
2023-02-02T00:33:45.631Z,101418.19
2023-02-02T00:36:12.105Z,101412.72
2023-02-02T00:38:38.470Z,101408.28
2023-02-02T00:41:05.323Z,101411.69
2023-02-02T00:43:31.705Z,101407.03
2023-02-02T00:45:58.361Z,101417.63
2023-02-02T00:48:25.885Z,101396.72
2023-02-02T00:50:53.308Z,101395.59
2023-02-02T00:53:20.302Z,101408.28
2023-02-02T00:55:46.739Z,101401.72
2023-02-02T00:58:13.133Z,101407.03
2023-02-02T01:00:39.858Z,101400.50
2023-02-02T01:03:07.037Z,101417.84
2023-02-02T01:05:34.492Z,101407.72
2023-02-02T01:08:01.164Z,101404.59
2023-02-02T01:10:27.599Z,101402.41
2023-02-02T01:12:54.385Z,101407.72
2023-02-02T01:15:20.881Z,101407.91
2023-02-02T01:17:47.300Z,101409.59
2023-02-02T01:20:19.955Z,101404.13
2023-02-02T01:22:47.159Z,101403.72
2023-02-02T01:25:13.808Z,101399.47
2023-02-02T01:27:40.308Z,101389.69
2023-02-02T01:30:07.515Z,101396.91
2023-02-02T01:32:33.948Z,101388.50
2023-02-02T01:35:00.419Z,101400.59
2023-02-02T01:37:26.796Z,101395.28
2023-02-02T01:39:53.176Z,101395.47
2023-02-02T01:42:22.167Z,101400.59
2023-02-02T01:45:14.347Z,101402.47
2023-02-02T01:47:46.163Z,101420.00
2023-02-02T01:50:15.193Z,101414.16
2023-02-02T01:52:45.930Z,101418.41
2023-02-02T01:55:16.735Z,101419.44
2023-02-02T01:57:43.089Z,101430.25
2023-02-02T02:00:13.510Z,101423.13
2023-02-02T02:02:43.154Z,101420.38
2023-02-02T02:05:09.961Z,101422.88
2023-02-02T02:07:38.785Z,101416.53
2023-02-02T02:10:05.676Z,101426.19
2023-02-02T02:12:32.144Z,101421.47
2023-02-02T02:15:16.858Z,101428.47
2023-02-02T02:17:52.205Z,101425.91
2023-02-02T02:20:50.703Z,101424.56
2023-02-02T02:23:35.532Z,101422.41
2023-02-02T02:26:20.506Z,101436.31
2023-02-02T02:28:55.656Z,101434.63
2023-02-02T02:31:58.889Z,101427.63
2023-02-02T02:34:44.135Z,101428.47
2023-02-02T02:37:47.329Z,101429.50
2023-02-02T02:40:37.049Z,101437.44
2023-02-02T02:43:16.120Z,101429.69
2023-02-02T02:45:44.620Z,101431.59
2023-02-02T02:48:11.569Z,101433.50
2023-02-02T02:50:38.303Z,101434.81
2023-02-02T02:53:31.027Z,101422.97
2023-02-02T02:56:14.781Z,101418.03
2023-02-02T02:59:10.946Z,101424.78
2023-02-02T03:01:54.586Z,101411.69
2023-02-02T03:05:00.500Z,101420.78
2023-02-02T03:07:38.317Z,101422.69
2023-02-02T03:10:07.667Z,101420.97
2023-02-02T03:12:34.367Z,101419.94
2023-02-02T03:15:05.561Z,101420.78
2023-02-02T03:17:31.992Z,101417.19
2023-02-02T03:19:58.397Z,101423.53
2023-02-02T03:22:24.836Z,101417.88
2023-02-02T03:24:51.249Z,101424.41
2023-02-02T03:27:17.756Z,101427.78
2023-02-02T03:29:44.238Z,101426.59
2023-02-02T03:32:10.879Z,101427.44
2023-02-02T03:34:37.269Z,101422.31
2023-02-02T03:37:03.731Z,101415.94
2023-02-02T03:39:30.147Z,101433.28
2023-02-02T03:41:56.549Z,101419.94
2023-02-02T03:44:22.941Z,101417.88
2023-02-02T03:46:53.663Z,101426.75
2023-02-02T03:49:20.824Z,101438.78
2023-02-02T03:51:47.533Z,101441.25
2023-02-02T03:54:14.796Z,101429.88
2023-02-02T03:56:41.197Z,101435.75
2023-02-02T03:59:07.629Z,101452.25
2023-02-02T04:01:34.280Z,101443.41
2023-02-02T04:04:00.828Z,101448.72
2023-02-02T04:06:27.304Z,101455.91
2023-02-02T04:08:53.737Z,101467.38
2023-02-02T04:11:20.152Z,101457.25
2023-02-02T04:13:46.597Z,101472.56
2023-02-02T04:16:13.057Z,101449.09
2023-02-02T04:18:39.490Z,101467.47
2023-02-02T04:21:07.651Z,101468.00
2023-02-02T04:23:34.376Z,101464.78
2023-02-02T04:26:01.119Z,101453.81
2023-02-02T04:28:28.385Z,101460.72
2023-02-02T04:30:56.148Z,101463.44
2023-02-02T04:33:24.254Z,101470.34
2023-02-02T04:35:51.168Z,101470.72
2023-02-02T04:38:17.656Z,101478.69
2023-02-02T04:40:47.018Z,101477.63
2023-02-02T04:43:14.027Z,101495.50
2023-02-02T04:45:40.620Z,101477.34
2023-02-02T04:48:07.063Z,101480.44
2023-02-02T04:50:33.650Z,101477.69
2023-02-02T04:53:00.204Z,101494.16
2023-02-02T04:55:26.863Z,101494.16
2023-02-02T04:57:53.451Z,101493.31
2023-02-02T05:00:20.227Z,101500.22
2023-02-02T05:02:46.670Z,101492.84
2023-02-02T05:05:14.273Z,101501.41
2023-02-02T05:07:40.910Z,101496.69
2023-02-02T05:10:08.949Z,101494.78
2023-02-02T05:12:35.661Z,101496.69
2023-02-02T05:15:03.495Z,101495.66
2023-02-02T05:17:30.044Z,101499.25
2023-02-02T05:19:56.588Z,101494.41
2023-02-02T05:22:23.018Z,101497.84
2023-02-02T05:24:49.491Z,101495.28
2023-02-02T05:27:15.916Z,101496.13
2023-02-02T05:29:42.300Z,101489.41
2023-02-02T05:32:08.825Z,101493.66
2023-02-02T05:34:35.270Z,101496.25
2023-02-02T05:37:01.667Z,101502.59
2023-02-02T05:39:28.197Z,101500.00
2023-02-02T05:41:54.589Z,101508.94
2023-02-02T05:44:21.142Z,101512.53
2023-02-02T05:46:47.628Z,101510.63
2023-02-02T05:49:14.422Z,101513.56
2023-02-02T05:51:44.797Z,101517.81
2023-02-02T05:54:11.174Z,101508.94
2023-02-02T05:56:38.021Z,101518.69
2023-02-02T05:59:07.378Z,101513.19
2023-02-02T06:01:34.269Z,101514.91
2023-02-02T06:04:00.752Z,101512.34
2023-02-02T06:06:27.495Z,101513.84
2023-02-02T06:08:53.883Z,101501.66
2023-02-02T06:11:20.366Z,101508.88
2023-02-02T06:13:46.999Z,101511.63
2023-02-02T06:16:13.949Z,101510.38
2023-02-02T06:18:40.460Z,101504.50
2023-02-02T06:21:07.202Z,101508.13
2023-02-02T06:23:34.675Z,101512.19
2023-02-02T06:26:03.420Z,101507.56
2023-02-02T06:28:31.422Z,101499.13
2023-02-02T06:31:04.654Z,101500.84
2023-02-02T06:33:31.251Z,101507.19
2023-02-02T06:36:02.168Z,101516.94
2023-02-02T06:38:28.860Z,101514.19
2023-02-02T06:40:55.977Z,101530.28
2023-02-02T06:43:22.397Z,101529.09
2023-02-02T06:45:48.789Z,101531.63
2023-02-02T06:48:15.204Z,101527.84
2023-02-02T06:50:41.672Z,101536.94
2023-02-02T06:53:08.078Z,101541.19
2023-02-02T06:55:34.605Z,101552.66
2023-02-02T06:58:01.680Z,101547.00
2023-02-02T07:00:29.853Z,101552.28
2023-02-02T07:02:56.490Z,101549.38
2023-02-02T07:05:24.230Z,101549.00
2023-02-02T07:07:51.298Z,101549.84
2023-02-02T07:11:14.056Z,101558.75
2023-02-02T07:13:06.975Z,101553.06
2023-02-02T07:15:34.475Z,101551.34
2023-02-02T07:18:01.198Z,101549.28
2023-02-02T07:20:27.898Z,101541.72
2023-02-02T07:22:54.290Z,101554.25
2023-02-02T07:25:20.655Z,101552.53
2023-02-02T07:27:47.900Z,101552.53
2023-02-02T07:30:15.326Z,101563.31
2023-02-02T07:32:46.683Z,101553.00
2023-02-02T07:35:13.067Z,101564.38
2023-02-02T07:37:40.138Z,101547.69
2023-02-02T07:40:07.708Z,101561.25
2023-02-02T07:42:34.137Z,101558.00
2023-02-02T07:45:01.207Z,101558.50
2023-02-02T07:47:47.543Z,101552.63
2023-02-02T07:50:13.959Z,101567.03
2023-02-02T07:52:40.436Z,101563.22
2023-02-02T07:55:14.503Z,101564.78
2023-02-02T07:57:41.417Z,101563.72
2023-02-02T08:00:09.268Z,101562.03
2023-02-02T08:02:35.851Z,101560.78
2023-02-02T08:05:02.336Z,101565.03
2023-02-02T08:07:28.768Z,101568.00
2023-02-02T08:09:55.131Z,101569.28
2023-02-02T08:12:24.811Z,101570.16
2023-02-02T08:14:52.026Z,101573.97
2023-02-02T08:17:18.720Z,101575.84
2023-02-02T08:19:45.144Z,101573.09
2023-02-02T08:22:11.629Z,101569.28
2023-02-02T08:24:40.504Z,101584.09
2023-02-02T08:27:08.237Z,101588.53
2023-02-02T08:29:36.611Z,101590.94
2023-02-02T08:32:03.678Z,101581.63
2023-02-02T08:34:30.229Z,101582.47
2023-02-02T08:36:56.802Z,101587.59
2023-02-02T08:39:23.285Z,101589.78
2023-02-02T08:41:49.794Z,101592.53
2023-02-02T08:44:16.371Z,101597.66
2023-02-02T08:46:43.336Z,101602.31
2023-02-02T08:49:11.978Z,101594.91
2023-02-02T08:51:38.523Z,101590.25
2023-02-02T08:54:05.029Z,101589.41
2023-02-02T08:56:31.491Z,101593.69
2023-02-02T08:58:58.731Z,101600.53
2023-02-02T09:01:27.828Z,101598.59
2023-02-02T09:03:59.179Z,101603.06
2023-02-02T09:06:37.520Z,101599.28
2023-02-02T09:09:06.510Z,101601.00
2023-02-02T09:11:33.017Z,101602.69
2023-02-02T09:14:02.054Z,101606.09
2023-02-02T09:16:29.084Z,101603.53
2023-02-02T09:18:56.270Z,101611.59
2023-02-02T09:21:23.366Z,101619.16
2023-02-02T09:23:51.531Z,101626.75
2023-02-02T09:26:18.008Z,101612.84
2023-02-02T09:28:47.558Z,101623.47
2023-02-02T09:31:14.909Z,101625.13
2023-02-02T09:33:42.305Z,101627.72
2023-02-02T09:36:11.457Z,101630.09
2023-02-02T09:38:39.267Z,101630.94
2023-02-02T09:41:27.541Z,101646.56
2023-02-02T09:44:16.473Z,101643.81
2023-02-02T09:47:20.448Z,101645.53
2023-02-02T09:49:56.393Z,101643.16
2023-02-02T09:52:30.346Z,101646.94
2023-02-02T09:55:04.772Z,101655.97
2023-02-02T09:57:47.080Z,101649.13
2023-02-02T10:00:38.294Z,101652.25
2023-02-02T10:03:14.027Z,101675.28
2023-02-02T10:06:13.769Z,101673.94
2023-02-02T10:08:49.027Z,101679.44
2023-02-02T10:11:31.057Z,101675.66
2023-02-02T10:14:03.104Z,101685.88
2023-02-02T10:16:30.857Z,101683.78
2023-02-02T10:19:04.615Z,101688.94
2023-02-02T10:22:09.622Z,101680.31
2023-02-02T10:24:37.056Z,101655.19
2023-02-02T10:27:07.122Z,101690.00
2023-02-02T10:29:58.439Z,101687.19
2023-02-02T10:32:28.101Z,101693.25
2023-02-02T10:35:14.464Z,101681.69
2023-02-02T10:38:22.370Z,101684.06
2023-02-02T10:41:00.924Z,101668.13
2023-02-02T10:43:45.700Z,101693.63
2023-02-02T10:46:26.111Z,101669.66
2023-02-02T10:49:09.926Z,101684.78
2023-02-02T10:51:36.492Z,101666.88
2023-02-02T10:54:08.998Z,101679.00
2023-02-02T10:56:40.493Z,101672.97
2023-02-02T10:59:13.150Z,101675.66
2023-02-02T11:01:39.631Z,101683.22
2023-02-02T11:04:25.031Z,101686.09
2023-02-02T11:06:51.883Z,101683.03
2023-02-02T11:09:23.133Z,101680.88
2023-02-02T11:11:53.204Z,101680.00
2023-02-02T11:14:45.432Z,101689.72
2023-02-02T11:17:31.027Z,101701.88
2023-02-02T11:19:57.732Z,101696.38
2023-02-02T11:22:30.284Z,101696.66
2023-02-02T11:25:00.246Z,101668.00
2023-02-02T11:27:31.666Z,101688.91
2023-02-02T11:29:59.909Z,101701.88
2023-02-02T11:32:29.507Z,101676.69
2023-02-02T11:35:18.236Z,101665.72
2023-02-02T11:37:58.609Z,101682.81
2023-02-02T11:40:36.940Z,101679.94
2023-02-02T11:43:17.230Z,101687.75
2023-02-02T11:45:45.313Z,101673.03
2023-02-02T11:48:18.355Z,101683.94
2023-02-02T11:50:53.780Z,101700.47
2023-02-02T11:53:27.160Z,101665.88
2023-02-02T11:55:55.287Z,101676.38
2023-02-02T11:58:27.921Z,101679.81
2023-02-02T12:01:01.726Z,101684.06
2023-02-02T12:03:36.783Z,101685.69
2023-02-02T12:06:33.458Z,101692.81
2023-02-02T12:09:07.155Z,101685.06
2023-02-02T12:11:48.262Z,101679.53
2023-02-02T12:14:35.122Z,101694.75
2023-02-02T12:17:13.628Z,101704.47
2023-02-02T12:20:02.719Z,101695.00
2023-02-02T12:22:44.395Z,101690.19
2023-02-02T12:25:26.959Z,101679.25
2023-02-02T12:27:59.641Z,101680.19
2023-02-02T12:31:00.074Z,101681.44
2023-02-02T12:33:37.885Z,101684.38
2023-02-02T12:36:37.961Z,101687.06
2023-02-02T12:39:32.532Z,101676.03
2023-02-02T12:42:08.957Z,101694.06
2023-02-02T12:44:42.876Z,101686.47
2023-02-02T12:47:21.353Z,101683.72
2023-02-02T12:50:08.186Z,101671.91
2023-02-02T12:52:47.057Z,101679.00
2023-02-02T12:55:53.867Z,101677.19
2023-02-02T12:58:36.699Z,101674.91
2023-02-02T13:01:03.221Z,101677.03
2023-02-02T13:03:59.603Z,101654.75
2023-02-02T13:07:03.047Z,101679.47
2023-02-02T13:09:48.438Z,101682.94
2023-02-02T13:12:18.637Z,101693.97
2023-02-02T13:15:07.631Z,101683.06
2023-02-02T13:17:41.612Z,101686.88
2023-02-02T13:20:36.106Z,101692.41
2023-02-02T13:23:14.544Z,101685.25
2023-02-02T13:25:47.524Z,101701.38
2023-02-02T13:28:24.794Z,101695.97
2023-02-02T13:30:52.746Z,101707.63
2023-02-02T13:33:26.137Z,101719.28
2023-02-02T13:35:57.959Z,101704.22
2023-02-02T13:38:27.444Z,101701.06
2023-02-02T13:40:55.946Z,101703.81
2023-02-02T13:43:46.997Z,101706.31
2023-02-02T13:46:31.614Z,101710.50
2023-02-02T13:49:10.929Z,101721.06
2023-02-02T13:51:40.336Z,101731.88
2023-02-02T13:54:25.283Z,101734.75
2023-02-02T13:56:58.903Z,101728.47
2023-02-02T13:59:40.261Z,101727.13
2023-02-02T14:02:20.733Z,101723.34
2023-02-02T14:04:54.904Z,101725.69
2023-02-02T14:07:42.810Z,101726.56
2023-02-02T14:10:31.689Z,101726.09
2023-02-02T14:13:29.867Z,101733.13
2023-02-02T14:15:57.959Z,101720.59
2023-02-02T14:18:52.226Z,101716.50
2023-02-02T14:21:33.924Z,101718.63
2023-02-02T14:24:24.633Z,101732.41
2023-02-02T14:26:52.835Z,101721.38
2023-02-02T14:29:31.785Z,101718.63
2023-02-02T14:32:20.903Z,101719.09
2023-02-02T14:34:49.360Z,101729.25
2023-02-02T14:37:21.704Z,101728.84
2023-02-02T14:40:07.181Z,101711.69
2023-02-02T14:42:58.056Z,101727.88
2023-02-02T14:45:32.566Z,101735.16
2023-02-02T14:48:18.536Z,101723.75
2023-02-02T14:50:51.632Z,101732.03
2023-02-02T14:53:23.713Z,101733.53
2023-02-02T14:55:58.014Z,101729.31
2023-02-02T14:58:33.993Z,101728.75
2023-02-02T15:01:24.924Z,101718.41
2023-02-02T15:03:57.302Z,101729.88
2023-02-02T15:06:33.008Z,101731.09
2023-02-02T15:09:26.637Z,101741.94
2023-02-02T15:12:01.296Z,101748.03
2023-02-02T15:14:46.887Z,101746.72
2023-02-02T15:17:31.417Z,101756.25
2023-02-02T15:20:21.058Z,101765.56
2023-02-02T15:22:47.590Z,101755.56
2023-02-02T15:25:51.610Z,101766.13
2023-02-02T15:28:35.720Z,101777.16
2023-02-02T15:31:11.363Z,101776.50
2023-02-02T15:33:41.504Z,101777.94
2023-02-02T15:36:28.321Z,101782.81
2023-02-02T15:38:59.666Z,101777.94
2023-02-02T15:41:33.985Z,101786.50
2023-02-02T15:44:00.950Z,101781.50
2023-02-02T15:46:34.258Z,101786.13
2023-02-02T15:49:33.399Z,101784.84
2023-02-02T15:52:09.994Z,101785.53
2023-02-02T15:54:39.623Z,101791.50
2023-02-02T15:57:23.914Z,101792.94
2023-02-02T15:59:50.535Z,101797.41
2023-02-02T16:02:40.843Z,101803.31
2023-02-02T16:05:39.557Z,101802.41
2023-02-02T16:08:14.025Z,101798.31
2023-02-02T16:10:40.477Z,101803.16
2023-02-02T16:13:06.995Z,101808.59
2023-02-02T16:15:33.520Z,101810.09
2023-02-02T16:18:02.196Z,101813.94
2023-02-02T16:20:33.058Z,101814.97
2023-02-02T16:23:02.231Z,101826.38
2023-02-02T16:25:39.889Z,101833.13
2023-02-02T16:28:06.551Z,101837.53
2023-02-02T16:30:36.967Z,101836.47
2023-02-02T16:33:39.261Z,101840.19
2023-02-02T16:36:29.820Z,101849.03
2023-02-02T16:38:58.279Z,101847.31
2023-02-02T16:41:27.872Z,101839.03
2023-02-02T16:43:54.780Z,101842.00
2023-02-02T16:46:57.314Z,101850.84
2023-02-02T16:49:26.622Z,101852.75
2023-02-02T16:52:19.922Z,101869.81
2023-02-02T16:54:56.990Z,101869.19
2023-02-02T16:57:27.378Z,101870.03
2023-02-02T16:59:57.384Z,101867.47
2023-02-02T17:02:38.502Z,101868.31
2023-02-02T17:05:07.768Z,101875.03
2023-02-02T17:07:37.154Z,101870.41
2023-02-02T17:10:14.644Z,101877.78
2023-02-02T17:12:41.110Z,101879.03
2023-02-02T17:15:16.476Z,101880.06
2023-02-02T17:17:48.551Z,101879.91
2023-02-02T17:20:19.248Z,101883.03
2023-02-02T17:22:48.980Z,101891.94
2023-02-02T17:25:17.850Z,101887.50
2023-02-02T17:27:45.232Z,101882.34
2023-02-02T17:30:17.519Z,101888.72
2023-02-02T17:32:43.990Z,101892.34
2023-02-02T17:35:22.384Z,101899.56
2023-02-02T17:37:49.540Z,101908.69
2023-02-02T17:40:17.429Z,101904.03
2023-02-02T17:42:45.647Z,101905.06
2023-02-02T17:45:23.017Z,101914.38
2023-02-02T17:47:50.999Z,101908.84
2023-02-02T17:50:17.783Z,101916.47
2023-02-02T17:52:45.780Z,101906.50
2023-02-02T17:55:20.116Z,101912.00
2023-02-02T17:57:47.386Z,101907.91
2023-02-02T18:00:14.992Z,101896.88
2023-02-02T18:02:41.540Z,101893.47
2023-02-02T18:05:08.448Z,101897.94
2023-02-02T18:07:34.905Z,101904.13
2023-02-02T18:10:01.331Z,101905.31
2023-02-02T18:12:28.175Z,101904.50
2023-02-02T18:14:54.605Z,101910.56
2023-02-02T18:17:21.184Z,101905.63
2023-02-02T18:19:51.085Z,101909.88
2023-02-02T18:22:18.381Z,101908.66
2023-02-02T18:24:44.979Z,101919.47
2023-02-02T18:27:11.415Z,101915.84
2023-02-02T18:29:37.835Z,101918.34
2023-02-02T18:32:04.316Z,101917.97
2023-02-02T18:34:32.821Z,101914.19
2023-02-02T18:36:59.588Z,101913.31
2023-02-02T18:39:26.430Z,101910.34
2023-02-02T18:41:53.048Z,101918.25
2023-02-02T18:44:19.795Z,101910.00
2023-02-02T18:46:46.337Z,101915.50
2023-02-02T18:49:12.770Z,101918.25
2023-02-02T18:51:39.356Z,101918.91
2023-02-02T18:54:05.750Z,101925.28
2023-02-02T18:56:32.480Z,101919.78
2023-02-02T18:58:59.541Z,101920.16
2023-02-02T19:01:26.530Z,101924.59
2023-02-02T19:03:55.299Z,101905.53
2023-02-02T19:06:41.328Z,101913.78
2023-02-02T19:09:08.466Z,101906.41
2023-02-02T19:11:39.192Z,101905.31
2023-02-02T19:14:12.448Z,101901.06
2023-02-02T19:16:39.359Z,101904.84
2023-02-02T19:19:22.599Z,101911.69
2023-02-02T19:21:57.858Z,101900.69
2023-02-02T19:24:26.813Z,101898.78
2023-02-02T19:26:53.936Z,101903.25
2023-02-02T19:29:25.630Z,101906.66
2023-02-02T19:32:07.439Z,101898.59
2023-02-02T19:34:34.318Z,101891.38
2023-02-02T19:37:21.507Z,101897.75
2023-02-02T19:39:47.931Z,101896.25
2023-02-02T19:42:14.297Z,101908.28
2023-02-02T19:44:41.964Z,101911.41
2023-02-02T19:47:21.461Z,101914.81
2023-02-02T19:49:47.900Z,101922.06
2023-02-02T19:52:22.530Z,101920.81
2023-02-02T19:54:49.650Z,101923.09
2023-02-02T19:57:21.251Z,101921.84
2023-02-02T19:59:50.159Z,101926.53
2023-02-02T20:02:51.853Z,101923.56
2023-02-02T20:05:21.228Z,101926.31
2023-02-02T20:07:55.676Z,101928.22
2023-02-02T20:10:37.974Z,101926.41
2023-02-02T20:13:18.505Z,101931.34
2023-02-02T20:15:45.346Z,101960.97
2023-02-02T20:18:26.276Z,101931.34
2023-02-02T20:20:55.428Z,101933.72
2023-02-02T20:23:29.849Z,101939.22
2023-02-02T20:25:58.022Z,101941.59
2023-02-02T20:28:30.180Z,101944.34
2023-02-02T20:30:56.664Z,101950.06
2023-02-02T20:33:24.786Z,101940.09
2023-02-02T20:35:51.250Z,101940.56
2023-02-02T20:38:28.528Z,101943.16
2023-02-02T20:40:56.509Z,101934.03
2023-02-02T20:43:22.930Z,101935.44
2023-02-02T20:45:51.040Z,101921.38
2023-02-02T20:48:17.727Z,101924.72
2023-02-02T20:50:46.638Z,101923.16
2023-02-02T20:53:16.381Z,101929.03
2023-02-02T20:55:44.642Z,101934.56
2023-02-02T20:58:11.536Z,101941.47
2023-02-02T21:00:38.549Z,101940.44
2023-02-02T21:03:05.072Z,101941.84
2023-02-02T21:05:31.572Z,101940.81
2023-02-02T21:07:58.029Z,101942.22
2023-02-02T21:10:26.196Z,101933.28
2023-02-02T21:12:52.942Z,101942.78
2023-02-02T21:15:19.492Z,101943.53
2023-02-02T21:17:45.925Z,101952.81
2023-02-02T21:20:14.816Z,101946.44
2023-02-02T21:22:41.331Z,101956.94
2023-02-02T21:25:08.786Z,101951.63
2023-02-02T21:27:35.770Z,101951.13
2023-02-02T21:30:02.382Z,101948.38
2023-02-02T21:32:28.809Z,101945.81
2023-02-02T21:34:55.241Z,101945.13
2023-02-02T21:37:21.745Z,101944.47
2023-02-02T21:39:49.492Z,101944.47
2023-02-02T21:42:18.803Z,101947.22
2023-02-02T21:44:49.701Z,101934.50
2023-02-02T21:47:34.812Z,101938.81
2023-02-02T21:50:13.804Z,101933.31
2023-02-02T21:52:40.343Z,101938.81
2023-02-02T21:55:35.491Z,101948.75
2023-02-02T21:58:22.487Z,101950.63
2023-02-02T22:00:50.075Z,101954.94
2023-02-02T22:03:25.953Z,101961.31
2023-02-02T22:05:53.599Z,101966.44
2023-02-02T22:08:25.205Z,101965.75
2023-02-02T22:10:51.768Z,101965.19
2023-02-02T22:13:24.806Z,101967.44
2023-02-02T22:15:53.094Z,101962.44
2023-02-02T22:18:21.645Z,101974.84
2023-02-02T22:20:50.600Z,101980.16
2023-02-02T22:23:21.540Z,101974.84
2023-02-02T22:25:49.754Z,101966.56
2023-02-02T22:28:16.156Z,101969.69
2023-02-02T22:30:42.887Z,101964.84
2023-02-02T22:33:11.383Z,101970.69
2023-02-02T22:35:38.112Z,101964.84
2023-02-02T22:38:05.413Z,101964.34
2023-02-02T22:40:31.825Z,101961.78
2023-02-02T22:43:00.261Z,101957.84
2023-02-02T22:45:27.165Z,101967.50
2023-02-02T22:47:54.126Z,101966.31
2023-02-02T22:50:23.349Z,101966.97
2023-02-02T22:52:49.941Z,101966.47
2023-02-02T22:55:17.240Z,101958.78
2023-02-02T22:57:44.077Z,101973.75
2023-02-02T23:00:13.852Z,101982.00
2023-02-02T23:02:41.623Z,101983.41
2023-02-02T23:05:10.350Z,101971.75
2023-02-02T23:07:36.982Z,101971.59
2023-02-02T23:10:04.144Z,101976.56
2023-02-02T23:12:30.890Z,101973.81
2023-02-02T23:14:57.254Z,101984.66
2023-02-02T23:17:23.709Z,101983.41
2023-02-02T23:19:50.274Z,101983.78
2023-02-02T23:22:16.723Z,101982.56
2023-02-02T23:24:44.412Z,101985.84
2023-02-02T23:27:12.912Z,101980.84
2023-02-02T23:29:39.807Z,101983.09
2023-02-02T23:32:07.127Z,101981.41
2023-02-02T23:34:33.700Z,101976.56
2023-02-02T23:37:00.153Z,101973.63
2023-02-02T23:39:26.527Z,101958.34
2023-02-02T23:41:53.031Z,101960.44
2023-02-02T23:44:19.441Z,101960.06
2023-02-02T23:46:46.241Z,101961.09
2023-02-02T23:49:13.019Z,101966.41
2023-02-02T23:51:39.797Z,101981.03
2023-02-02T23:54:06.537Z,101975.16
2023-02-02T23:56:33.208Z,101963.13
2023-02-02T23:58:59.586Z,101955.91
